createdAt,value
2023-02-14T00:01:12.951Z,59.53
2023-02-14T00:03:40.283Z,59.00
2023-02-14T00:06:13.806Z,59.63
2023-02-14T00:08:44.378Z,67.67
2023-02-14T00:11:12.882Z,68.27
2023-02-14T00:13:40.019Z,62.73
2023-02-14T00:16:07.296Z,64.97
2023-02-14T00:18:52.648Z,59.57
2023-02-14T00:21:19.683Z,57.07
2023-02-14T00:23:46.753Z,55.90
2023-02-14T00:26:15.382Z,63.60
2023-02-14T00:28:42.897Z,56.07
2023-02-14T00:31:10.239Z,43.83
2023-02-14T00:33:37.844Z,36.37
2023-02-14T00:36:07.297Z,41.23
2023-02-14T00:38:35.785Z,49.30
2023-02-14T00:41:03.469Z,44.27
2023-02-14T00:43:30.782Z,47.97
2023-02-14T00:45:57.938Z,47.70
2023-02-14T00:48:25.216Z,50.13
2023-02-14T00:50:52.361Z,55.63
2023-02-14T00:53:19.413Z,57.40
2023-02-14T00:55:47.088Z,55.53
2023-02-14T00:58:14.205Z,53.87
2023-02-14T01:00:41.267Z,48.03
2023-02-14T01:03:08.322Z,54.47
2023-02-14T01:05:35.330Z,50.17
2023-02-14T01:08:03.112Z,44.83
2023-02-14T01:10:30.130Z,38.97
2023-02-14T01:12:57.214Z,46.27
2023-02-14T01:15:24.203Z,43.87
2023-02-14T01:17:51.230Z,48.57
2023-02-14T01:20:18.436Z,52.80
2023-02-14T01:22:45.538Z,56.70
2023-02-14T01:25:12.600Z,58.77
2023-02-14T01:27:39.623Z,53.73
2023-02-14T01:30:08.008Z,51.57
2023-02-14T01:32:35.569Z,56.10
2023-02-14T01:35:02.658Z,56.37
2023-02-14T01:37:30.687Z,56.13
2023-02-14T01:40:02.541Z,60.87
2023-02-14T01:42:29.639Z,60.50
2023-02-14T01:45:21.668Z,58.97
2023-02-14T01:47:54.688Z,59.17
2023-02-14T01:50:32.918Z,58.27
2023-02-14T01:53:05.888Z,57.30
2023-02-14T01:55:37.705Z,63.20
2023-02-14T01:58:37.720Z,64.70
2023-02-14T02:01:06.055Z,62.33
2023-02-14T02:03:54.944Z,63.83
2023-02-14T02:06:40.615Z,60.73
2023-02-14T02:09:40.868Z,63.90
2023-02-14T02:12:07.936Z,64.40
2023-02-14T02:14:35.420Z,56.97
2023-02-14T02:17:20.572Z,61.43
2023-02-14T02:20:33.997Z,65.90
2023-02-14T02:23:27.934Z,64.23
2023-02-14T02:26:22.347Z,62.63
2023-02-14T02:29:26.267Z,61.43
2023-02-14T02:32:26.792Z,62.23
2023-02-14T02:35:31.921Z,59.90
2023-02-14T02:38:19.599Z,64.80
2023-02-14T02:41:38.625Z,58.43
2023-02-14T02:44:43.135Z,64.97
2023-02-14T02:47:34.687Z,65.23
2023-02-14T02:50:43.734Z,64.23
2023-02-14T02:53:41.281Z,59.93
2023-02-14T02:56:44.106Z,54.97
2023-02-14T02:59:23.855Z,58.40
2023-02-14T03:02:17.711Z,59.60
2023-02-14T03:04:54.523Z,61.80
2023-02-14T03:07:36.424Z,58.63
2023-02-14T03:10:06.676Z,56.90
2023-02-14T03:12:33.645Z,55.03
2023-02-14T03:15:03.442Z,62.63
2023-02-14T03:17:37.659Z,54.00
2023-02-14T03:20:37.894Z,60.43
2023-02-14T03:23:21.980Z,53.20
2023-02-14T03:26:01.170Z,52.37
2023-02-14T03:28:46.365Z,57.40
2023-02-14T03:31:56.132Z,61.87
2023-02-14T03:34:35.498Z,58.87
2023-02-14T03:37:22.759Z,60.87
2023-02-14T03:40:02.315Z,59.73
2023-02-14T03:42:38.019Z,59.93
2023-02-14T03:45:09.675Z,60.33
2023-02-14T03:47:38.303Z,63.70
2023-02-14T03:50:17.393Z,61.37
2023-02-14T03:52:46.829Z,61.43
2023-02-14T03:55:20.285Z,74.83
2023-02-14T03:57:56.027Z,64.57
2023-02-14T04:00:23.438Z,69.80
2023-02-14T04:02:56.377Z,66.03
2023-02-14T04:05:27.619Z,64.03
2023-02-14T04:07:58.102Z,63.17
2023-02-14T04:10:26.483Z,61.97
2023-02-14T04:12:53.562Z,69.33
2023-02-14T04:15:20.605Z,67.07
2023-02-14T04:18:06.030Z,70.53
2023-02-14T04:20:34.145Z,69.07
2023-02-14T04:23:03.327Z,52.97
2023-02-14T04:25:31.096Z,71.60
2023-02-14T04:27:58.075Z,55.27
2023-02-14T04:30:25.331Z,52.43
2023-02-14T04:32:52.431Z,62.00
2023-02-14T04:35:19.370Z,54.93
2023-02-14T04:37:46.459Z,67.03
2023-02-14T04:40:17.554Z,67.70
2023-02-14T04:42:46.082Z,64.23
2023-02-14T04:45:13.321Z,63.03
2023-02-14T04:47:40.316Z,63.40
2023-02-14T04:50:08.161Z,65.97
2023-02-14T04:52:35.158Z,62.43
2023-02-14T04:55:04.584Z,60.67
2023-02-14T04:57:31.742Z,61.60
2023-02-14T04:59:58.822Z,66.67
2023-02-14T05:02:26.179Z,67.17
2023-02-14T05:04:53.207Z,68.17
2023-02-14T05:07:20.213Z,67.30
2023-02-14T05:09:47.272Z,65.97
2023-02-14T05:12:15.955Z,64.53
2023-02-14T05:14:43.327Z,62.83
2023-02-14T05:17:10.308Z,69.67
2023-02-14T05:19:37.227Z,73.97
2023-02-14T05:22:04.473Z,72.17
2023-02-14T05:24:31.454Z,69.17
2023-02-14T05:26:58.451Z,66.10
2023-02-14T05:29:25.522Z,63.57
2023-02-14T05:31:52.601Z,64.20
2023-02-14T05:34:21.342Z,63.63
2023-02-14T05:36:48.848Z,66.87
2023-02-14T05:39:15.872Z,58.87
2023-02-14T05:41:42.997Z,53.53
2023-02-14T05:44:10.137Z,57.10
2023-02-14T05:46:37.273Z,57.03
2023-02-14T05:49:04.289Z,54.33
2023-02-14T05:51:31.380Z,55.67
2023-02-14T05:54:00.129Z,49.53
2023-02-14T05:56:27.645Z,59.50
2023-02-14T05:58:54.713Z,54.33
2023-02-14T06:01:21.769Z,63.63
2023-02-14T06:03:48.769Z,56.40
2023-02-14T06:06:15.849Z,69.53
2023-02-14T06:08:42.864Z,62.67
2023-02-14T06:11:09.917Z,62.27
2023-02-14T06:13:36.859Z,62.70
2023-02-14T06:16:05.097Z,58.00
2023-02-14T06:18:32.071Z,58.70
2023-02-14T06:20:59.338Z,73.57
2023-02-14T06:23:29.405Z,61.50
2023-02-14T06:25:56.431Z,62.90
2023-02-14T06:28:23.432Z,65.53
2023-02-14T06:30:50.592Z,57.47
2023-02-14T06:33:17.716Z,56.23
2023-02-14T06:35:44.762Z,69.67
2023-02-14T06:38:11.765Z,58.93
2023-02-14T06:40:38.799Z,58.87
2023-02-14T06:43:06.199Z,58.87
2023-02-14T06:45:33.292Z,62.10
2023-02-14T06:48:00.436Z,73.40
2023-02-14T06:50:27.554Z,71.07
2023-02-14T06:52:54.664Z,77.57
2023-02-14T06:55:21.612Z,66.20
2023-02-14T06:57:48.609Z,80.50
2023-02-14T07:00:16.095Z,76.30
2023-02-14T07:02:45.250Z,70.47
2023-02-14T07:05:12.273Z,67.30
2023-02-14T07:07:39.217Z,70.07
2023-02-14T07:10:07.146Z,67.87
2023-02-14T07:12:34.889Z,77.50
2023-02-14T07:15:02.089Z,71.60
2023-02-14T07:17:29.103Z,76.27
2023-02-14T07:19:56.322Z,82.10
2023-02-14T07:22:23.304Z,78.37
2023-02-14T07:24:50.354Z,72.37
2023-02-14T07:27:17.470Z,74.53
2023-02-14T07:29:44.513Z,77.23
2023-02-14T07:32:11.564Z,78.50
2023-02-14T07:34:38.556Z,79.37
2023-02-14T07:37:05.528Z,74.77
2023-02-14T07:39:32.503Z,71.07
2023-02-14T07:41:59.481Z,71.47
2023-02-14T07:44:27.128Z,82.33
2023-02-14T07:46:54.095Z,78.73
2023-02-14T07:49:21.249Z,70.43
2023-02-14T07:51:48.607Z,75.63
2023-02-14T07:54:15.601Z,80.70
2023-02-14T07:56:42.640Z,87.17
2023-02-14T07:59:09.596Z,92.70
2023-02-14T08:01:36.668Z,85.57
2023-02-14T08:04:03.844Z,83.23
2023-02-14T08:06:30.806Z,72.90
2023-02-14T08:08:57.781Z,79.70
2023-02-14T08:11:43.006Z,85.77
2023-02-14T08:14:10.124Z,91.93
2023-02-14T08:16:38.325Z,88.20
2023-02-14T08:19:05.547Z,100.10
2023-02-14T08:21:32.725Z,104.10
2023-02-14T08:23:59.768Z,98.13
2023-02-14T08:26:26.804Z,86.43
2023-02-14T08:28:54.354Z,75.00
2023-02-14T08:31:36.859Z,66.80
2023-02-14T08:34:07.584Z,67.90
2023-02-14T08:36:35.369Z,55.33
2023-02-14T08:39:04.864Z,52.87
2023-02-14T08:41:32.707Z,51.77
2023-02-14T08:43:59.920Z,55.73
2023-02-14T08:46:27.689Z,51.90
2023-02-14T08:48:56.060Z,48.67
2023-02-14T08:51:23.647Z,47.20
2023-02-14T08:53:53.117Z,50.03
2023-02-14T08:56:22.639Z,46.80
2023-02-14T08:58:53.479Z,49.13
2023-02-14T09:01:20.835Z,48.97
2023-02-14T09:03:47.963Z,47.03
2023-02-14T09:06:17.547Z,48.70
2023-02-14T09:08:45.463Z,46.23
2023-02-14T09:11:24.676Z,49.77
2023-02-14T09:13:53.596Z,46.77
2023-02-14T09:16:22.572Z,46.80
2023-02-14T09:18:51.685Z,46.43
2023-02-14T09:21:27.898Z,45.17
2023-02-14T09:23:55.338Z,49.30
2023-02-14T09:26:22.670Z,49.17
2023-02-14T09:28:49.802Z,47.17
2023-02-14T09:31:22.881Z,48.90
2023-02-14T09:33:51.972Z,52.40
2023-02-14T09:36:19.099Z,45.97
2023-02-14T09:38:46.520Z,47.17
2023-02-14T09:42:03.197Z,53.13
2023-02-14T09:44:41.957Z,45.43
2023-02-14T09:47:27.010Z,48.00
2023-02-14T09:49:55.898Z,48.77
2023-02-14T09:52:28.626Z,50.00
2023-02-14T09:55:01.506Z,48.97
2023-02-14T09:58:15.991Z,48.50
2023-02-14T10:01:05.446Z,54.80
2023-02-14T10:04:18.825Z,49.47
2023-02-14T10:06:48.147Z,48.40
2023-02-14T10:09:47.413Z,53.37
2023-02-14T10:12:28.977Z,51.83
2023-02-14T10:15:01.004Z,55.87
2023-02-14T10:17:41.256Z,52.87
2023-02-14T10:20:39.270Z,55.87
2023-02-14T10:23:32.914Z,57.10
2023-02-14T10:26:04.398Z,63.67
2023-02-14T10:28:34.190Z,55.30
2023-02-14T10:31:55.859Z,62.17
2023-02-14T10:34:36.181Z,56.93
2023-02-14T10:37:15.488Z,59.17
2023-02-14T10:40:07.039Z,57.73
2023-02-14T10:43:08.179Z,54.33
2023-02-14T10:45:46.976Z,55.20
2023-02-14T10:48:34.127Z,62.00
2023-02-14T10:51:36.243Z,62.33
2023-02-14T10:54:22.868Z,60.93
2023-02-14T10:57:00.714Z,54.87
2023-02-14T10:59:46.943Z,57.57
2023-02-14T11:02:17.474Z,60.57
2023-02-14T11:04:47.425Z,65.03
2023-02-14T11:07:18.770Z,56.10
2023-02-14T11:09:46.074Z,54.93
2023-02-14T11:12:32.620Z,66.60
2023-02-14T11:15:13.944Z,59.10
2023-02-14T11:17:42.468Z,61.60
2023-02-14T11:20:18.666Z,57.87
2023-02-14T11:22:46.453Z,60.07
2023-02-14T11:25:28.889Z,57.03
2023-02-14T11:28:10.419Z,61.87
2023-02-14T11:30:42.844Z,60.90
2023-02-14T11:33:30.878Z,59.90
2023-02-14T11:35:58.538Z,60.65
2023-02-14T11:38:38.068Z,61.07
2023-02-14T11:41:12.230Z,58.33
2023-02-14T11:43:44.606Z,58.13
2023-02-14T11:46:20.888Z,58.17
2023-02-14T11:49:07.294Z,59.95
2023-02-14T11:51:40.316Z,64.88
2023-02-14T11:54:28.847Z,59.90
2023-02-14T11:57:11.910Z,56.15
2023-02-14T11:59:38.804Z,57.37
2023-02-14T12:02:24.670Z,61.85
2023-02-14T12:05:07.472Z,59.45
2023-02-14T12:07:38.294Z,59.67
2023-02-14T12:10:16.361Z,62.38
2023-02-14T12:13:22.031Z,64.07
2023-02-14T12:15:58.405Z,58.67
2023-02-14T12:19:07.546Z,63.07
2023-02-14T12:22:04.818Z,64.17
2023-02-14T12:24:48.886Z,63.33
2023-02-14T12:27:52.156Z,64.13
2023-02-14T12:30:23.339Z,58.97
2023-02-14T12:32:53.615Z,68.18
2023-02-14T12:36:07.838Z,62.17
2023-02-14T12:39:05.478Z,72.82
2023-02-14T12:42:04.512Z,61.38
2023-02-14T12:44:59.331Z,60.95
2023-02-14T12:47:56.912Z,61.22
2023-02-14T12:50:51.572Z,64.40
2023-02-14T12:53:42.569Z,62.33
2023-02-14T12:56:46.019Z,60.63
2023-02-14T12:59:22.863Z,65.18
2023-02-14T13:02:05.417Z,60.63
2023-02-14T13:04:54.295Z,59.85
2023-02-14T13:07:56.124Z,64.63
2023-02-14T13:10:49.859Z,58.22
2023-02-14T13:14:04.672Z,61.30
2023-02-14T13:16:55.445Z,59.35
2023-02-14T13:19:50.239Z,59.55
2023-02-14T13:22:23.082Z,62.40
2023-02-14T13:24:55.874Z,59.55
2023-02-14T13:27:32.466Z,60.40
2023-02-14T13:30:31.041Z,57.47
2023-02-14T13:33:28.346Z,63.67
2023-02-14T13:36:00.969Z,56.80
2023-02-14T13:38:31.821Z,59.05
2023-02-14T13:41:01.254Z,64.20
2023-02-14T13:43:50.172Z,61.03
2023-02-14T13:46:20.548Z,67.18
2023-02-14T13:49:37.663Z,63.88
2023-02-14T13:52:06.542Z,63.90
2023-02-14T13:54:41.046Z,64.72
2023-02-14T13:57:36.559Z,66.53
2023-02-14T14:00:22.435Z,63.80
2023-02-14T14:02:54.367Z,62.07
2023-02-14T14:05:49.865Z,61.65
2023-02-14T14:08:23.418Z,71.15
2023-02-14T14:10:57.177Z,62.20
2023-02-14T14:13:42.440Z,67.87
2023-02-14T14:16:27.421Z,63.27
2023-02-14T14:19:21.137Z,64.10
2023-02-14T14:22:10.358Z,60.97
2023-02-14T14:24:51.795Z,66.03
2023-02-14T14:27:24.957Z,64.77
2023-02-14T14:30:00.524Z,68.60
2023-02-14T14:32:38.578Z,64.50
2023-02-14T14:35:23.879Z,63.90
2023-02-14T14:37:58.447Z,63.83
2023-02-14T14:40:34.929Z,69.20
2023-02-14T14:43:24.485Z,68.53
2023-02-14T14:45:53.332Z,71.07
2023-02-14T14:48:40.129Z,73.07
2023-02-14T14:51:09.952Z,66.17
2023-02-14T14:53:56.568Z,65.17
2023-02-14T14:56:33.745Z,65.72
2023-02-14T14:59:28.692Z,69.30
2023-02-14T15:01:56.499Z,70.97
2023-02-14T15:04:33.731Z,70.67
2023-02-14T15:07:41.990Z,69.57
2023-02-14T15:10:28.349Z,65.80
2023-02-14T15:13:17.490Z,66.43
2023-02-14T15:15:51.442Z,65.13
2023-02-14T15:18:20.438Z,67.60
2023-02-14T15:20:52.181Z,66.53
2023-02-14T15:23:23.132Z,68.20
2023-02-14T15:25:50.755Z,70.73
2023-02-14T15:28:34.184Z,66.30
2023-02-14T15:31:07.799Z,66.00
2023-02-14T15:33:36.246Z,69.40
2023-02-14T15:36:08.716Z,71.40
2023-02-14T15:38:40.611Z,68.37
2023-02-14T15:41:08.310Z,68.33
2023-02-14T15:43:37.886Z,70.70
2023-02-14T15:46:41.902Z,69.80
2023-02-14T15:49:14.109Z,67.93
2023-02-14T15:51:42.387Z,71.73
2023-02-14T15:54:23.717Z,70.33
2023-02-14T15:56:53.025Z,73.67
2023-02-14T15:59:29.658Z,74.70
2023-02-14T16:02:32.112Z,70.63
2023-02-14T16:05:21.846Z,71.83
2023-02-14T16:08:30.945Z,70.13
2023-02-14T16:11:13.659Z,72.43
2023-02-14T16:13:47.320Z,65.33
2023-02-14T16:16:15.626Z,76.47
2023-02-14T16:18:49.529Z,70.80
2023-02-14T16:21:25.816Z,73.40
2023-02-14T16:24:07.861Z,66.53
2023-02-14T16:26:40.523Z,72.80
2023-02-14T16:29:11.269Z,61.30
2023-02-14T16:32:15.118Z,67.10
2023-02-14T16:34:41.902Z,74.53
2023-02-14T16:37:23.171Z,69.97
2023-02-14T16:39:57.723Z,71.53
2023-02-14T16:42:25.029Z,69.97
2023-02-14T16:44:53.426Z,65.60
2023-02-14T16:47:21.603Z,64.27
2023-02-14T16:49:50.614Z,73.73
2023-02-14T16:52:23.434Z,77.10
2023-02-14T16:54:50.693Z,72.20
2023-02-14T16:57:30.889Z,81.07
2023-02-14T16:59:57.912Z,71.00
2023-02-14T17:02:28.437Z,76.70
2023-02-14T17:04:55.658Z,80.83
2023-02-14T17:07:22.885Z,85.73
2023-02-14T17:09:58.399Z,76.10
2023-02-14T17:12:31.098Z,86.23
2023-02-14T17:15:06.816Z,83.10
2023-02-14T17:17:36.248Z,83.30
2023-02-14T17:20:05.892Z,81.20
2023-02-14T17:22:34.257Z,78.27
2023-02-14T17:25:01.212Z,78.70
2023-02-14T17:27:28.213Z,74.53
2023-02-14T17:29:55.212Z,75.87
2023-02-14T17:32:22.352Z,74.43
2023-02-14T17:34:49.475Z,80.87
2023-02-14T17:37:18.893Z,89.53
2023-02-14T17:39:46.236Z,85.27
2023-02-14T17:42:13.284Z,88.67
2023-02-14T17:44:40.568Z,83.53
2023-02-14T17:47:07.684Z,79.87
2023-02-14T17:49:34.636Z,84.47
2023-02-14T17:52:01.752Z,81.00
2023-02-14T17:54:28.695Z,82.10
2023-02-14T17:56:55.773Z,82.53
2023-02-14T17:59:22.785Z,78.33
2023-02-14T18:01:49.781Z,73.63
2023-02-14T18:04:16.799Z,86.80
2023-02-14T18:06:43.828Z,89.43
2023-02-14T18:09:10.905Z,84.17
2023-02-14T18:11:40.241Z,80.20
2023-02-14T18:14:07.268Z,86.67
2023-02-14T18:16:37.745Z,86.30
2023-02-14T18:19:06.866Z,82.07
2023-02-14T18:21:36.078Z,88.10
2023-02-14T18:24:04.238Z,92.13
2023-02-14T18:26:31.511Z,91.97
2023-02-14T18:28:58.704Z,95.73
2023-02-14T18:31:26.719Z,116.07
2023-02-14T18:33:53.951Z,93.20
2023-02-14T18:36:25.671Z,95.83
2023-02-14T18:38:54.775Z,91.63
2023-02-14T18:41:22.659Z,84.57
2023-02-14T18:43:50.216Z,94.67
2023-02-14T18:46:27.408Z,93.47
2023-02-14T18:48:56.205Z,95.00
2023-02-14T18:51:27.458Z,94.80
2023-02-14T18:53:56.784Z,94.33
2023-02-14T18:56:33.631Z,89.40
2023-02-14T18:59:07.746Z,95.67
2023-02-14T19:01:42.849Z,96.00
2023-02-14T19:04:12.296Z,97.23
2023-02-14T19:06:41.861Z,92.10
2023-02-14T19:09:12.547Z,95.80
2023-02-14T19:11:39.907Z,102.53
2023-02-14T19:14:10.180Z,93.07
2023-02-14T19:16:43.754Z,99.30
2023-02-14T19:19:11.291Z,101.23
2023-02-14T19:21:38.389Z,106.73
2023-02-14T19:24:07.168Z,107.33
2023-02-14T19:26:40.735Z,100.03
2023-02-14T19:29:15.533Z,96.80
2023-02-14T19:31:49.475Z,94.47
2023-02-14T19:34:20.231Z,92.40
2023-02-14T19:36:48.283Z,92.37
2023-02-14T19:39:15.854Z,99.87
2023-02-14T19:41:42.884Z,94.87
2023-02-14T19:44:13.879Z,87.60
2023-02-14T19:46:42.760Z,90.27
2023-02-14T19:49:15.267Z,96.53
2023-02-14T19:51:42.543Z,94.00
2023-02-14T19:54:10.377Z,98.10
2023-02-14T19:56:42.191Z,99.07
2023-02-14T19:59:20.528Z,104.67
2023-02-14T20:01:54.752Z,96.30
2023-02-14T20:04:25.670Z,89.60
2023-02-14T20:06:53.203Z,102.60
2023-02-14T20:09:22.469Z,100.57
2023-02-14T20:11:58.195Z,100.20
2023-02-14T20:14:47.110Z,99.57
2023-02-14T20:17:19.493Z,98.40
2023-02-14T20:19:49.508Z,107.20
2023-02-14T20:22:17.008Z,92.23
2023-02-14T20:24:44.357Z,98.00
2023-02-14T20:27:12.161Z,96.40
2023-02-14T20:29:43.377Z,97.73
2023-02-14T20:32:12.626Z,105.13
2023-02-14T20:34:40.126Z,109.17
2023-02-14T20:37:07.153Z,108.10
2023-02-14T20:39:35.906Z,111.70
2023-02-14T20:42:04.059Z,107.87
2023-02-14T20:44:31.620Z,98.00
2023-02-14T20:46:58.824Z,101.50
2023-02-14T20:49:28.718Z,101.67
2023-02-14T20:51:56.140Z,105.60
2023-02-14T20:54:34.428Z,109.20
2023-02-14T20:57:01.379Z,102.87
2023-02-14T20:59:28.964Z,100.57
2023-02-14T21:01:58.608Z,110.57
2023-02-14T21:04:25.661Z,116.63
2023-02-14T21:06:52.643Z,113.67
2023-02-14T21:09:20.783Z,116.07
2023-02-14T21:11:47.990Z,108.63
2023-02-14T21:14:17.305Z,107.20
2023-02-14T21:16:44.316Z,111.73
2023-02-14T21:19:11.292Z,101.57
2023-02-14T21:21:38.825Z,109.53
2023-02-14T21:24:14.544Z,114.23
2023-02-14T21:26:42.610Z,112.27
2023-02-14T21:29:10.712Z,111.70
2023-02-14T21:31:39.523Z,112.27
2023-02-14T21:34:06.573Z,109.23
2023-02-14T21:36:37.989Z,100.30
2023-02-14T21:39:06.793Z,97.90
2023-02-14T21:41:35.832Z,91.03
2023-02-14T21:44:04.275Z,92.83
2023-02-14T21:46:35.897Z,98.87
2023-02-14T21:49:23.446Z,107.90
2023-02-14T21:51:50.579Z,94.53
2023-02-14T21:54:18.020Z,82.00
2023-02-14T21:56:45.255Z,76.93
2023-02-14T21:59:12.876Z,73.87
2023-02-14T22:01:42.293Z,72.13
2023-02-14T22:04:12.242Z,70.60
2023-02-14T22:06:41.680Z,68.00
2023-02-14T22:09:11.066Z,71.70
2023-02-14T22:11:38.254Z,73.03
2023-02-14T22:14:05.560Z,75.40
2023-02-14T22:16:32.604Z,78.70
2023-02-14T22:18:59.585Z,78.17
2023-02-14T22:21:27.297Z,79.93
2023-02-14T22:23:55.369Z,77.93
2023-02-14T22:26:35.430Z,80.43
2023-02-14T22:29:03.657Z,83.97
2023-02-14T22:31:36.259Z,86.13
2023-02-14T22:34:06.037Z,85.87
2023-02-14T22:36:33.557Z,89.87
2023-02-14T22:39:00.820Z,79.07
2023-02-14T22:41:28.468Z,81.97
2023-02-14T22:43:55.699Z,85.43
2023-02-14T22:46:28.636Z,88.63
2023-02-14T22:48:57.610Z,83.17
2023-02-14T22:51:32.113Z,77.80
2023-02-14T22:54:02.485Z,84.13
2023-02-14T22:56:39.698Z,87.87
2023-02-14T22:59:17.004Z,90.17
2023-02-14T23:01:45.789Z,87.63
2023-02-14T23:04:15.952Z,81.80
2023-02-14T23:06:43.823Z,74.10
2023-02-14T23:09:12.908Z,96.03
2023-02-14T23:11:42.377Z,89.23
2023-02-14T23:14:31.757Z,87.47
2023-02-14T23:17:17.333Z,85.77
2023-02-14T23:20:03.887Z,82.10
2023-02-14T23:22:40.668Z,82.73
2023-02-14T23:25:11.199Z,78.93
2023-02-14T23:27:43.061Z,81.47
2023-02-14T23:30:14.706Z,80.73
2023-02-14T23:32:42.054Z,89.07
2023-02-14T23:35:10.142Z,77.93
2023-02-14T23:37:37.383Z,77.70
2023-02-14T23:40:05.269Z,73.27
2023-02-14T23:42:32.289Z,74.07
2023-02-14T23:45:19.190Z,79.97
2023-02-14T23:47:46.176Z,83.27
2023-02-14T23:50:13.123Z,80.73
2023-02-14T23:52:41.753Z,77.80
2023-02-14T23:55:09.541Z,74.47
2023-02-14T23:57:37.373Z,62.97
